createdAt,value
2023-02-26T00:00:01.628Z,10.7
2023-02-26T00:05:12.061Z,13.2
2023-02-26T00:11:07.283Z,11.9
2023-02-26T00:16:34.156Z,8.4
2023-02-26T00:21:49.061Z,13.2
2023-02-26T00:27:29.084Z,8.4
2023-02-26T00:32:59.634Z,7.2
2023-02-26T00:38:46.884Z,9.6
2023-02-26T00:44:05.636Z,5.9
2023-02-26T00:50:05.437Z,5.9
2023-02-26T00:55:31.101Z,5.9
2023-02-26T01:00:56.960Z,10.7
2023-02-26T01:06:44.112Z,9.6
2023-02-26T01:11:54.402Z,7.2
2023-02-26T01:17:42.232Z,8.4
2023-02-26T01:23:12.482Z,7.2
2023-02-26T01:28:38.704Z,7.2
2023-02-26T01:34:05.788Z,7.2
2023-02-26T01:39:46.668Z,7.2
2023-02-26T01:45:32.684Z,11.9
2023-02-26T01:51:02.984Z,14.4
2023-02-26T01:56:29.795Z,15.6
2023-02-26T02:02:05.206Z,9.6
2023-02-26T02:07:44.000Z,7.2
2023-02-26T02:13:28.888Z,8.4
2023-02-26T02:18:52.646Z,7.2
2023-02-26T02:24:28.083Z,8.4
2023-02-26T02:30:03.392Z,7.2
2023-02-26T02:35:23.357Z,10.7
2023-02-26T02:41:04.310Z,11.9
2023-02-26T02:46:50.966Z,11.9
2023-02-26T02:52:12.250Z,11.9
2023-02-26T02:57:49.274Z,10.7
2023-02-26T03:03:16.467Z,11.9
2023-02-26T03:08:48.970Z,13.2
2023-02-26T03:14:33.342Z,15.6
2023-02-26T03:20:02.326Z,13.2
2023-02-26T03:25:34.067Z,13.2
2023-02-26T03:31:00.665Z,15.6
2023-02-26T03:36:45.150Z,13.2
2023-02-26T03:42:12.745Z,11.9
2023-02-26T03:47:37.862Z,7.2
2023-02-26T03:53:27.373Z,5.9
2023-02-26T03:58:58.636Z,5.9
2023-02-26T04:04:26.209Z,5.9
2023-02-26T04:09:55.424Z,7.2
2023-02-26T04:15:51.705Z,9.6
2023-02-26T04:21:26.014Z,9.6
2023-02-26T04:26:52.276Z,9.6
2023-02-26T04:32:28.089Z,11.9
2023-02-26T04:37:38.299Z,13.2
2023-02-26T04:43:14.622Z,16.8
2023-02-26T04:48:50.981Z,15.6
2023-02-26T04:54:21.501Z,13.2
2023-02-26T05:00:08.933Z,16.8
2023-02-26T05:05:27.165Z,19.2
2023-02-26T05:11:13.680Z,16.8
2023-02-26T05:16:36.271Z,15.6
2023-02-26T05:22:27.810Z,15.6
2023-02-26T05:27:43.838Z,16.8
2023-02-26T05:33:36.872Z,15.6
2023-02-26T05:39:03.395Z,18
2023-02-26T05:44:47.525Z,16.8
2023-02-26T05:50:08.141Z,14.4
2023-02-26T05:55:50.725Z,14.4
2023-02-26T06:01:12.744Z,13.2
2023-02-26T06:07:04.113Z,9.6
2023-02-26T06:12:31.248Z,10.7
2023-02-26T06:18:10.045Z,9.6
2023-02-26T06:23:17.258Z,9.6
2023-02-26T06:29:08.970Z,10.7
2023-02-26T06:34:51.287Z,10.7
2023-02-26T06:40:19.673Z,8.4
2023-02-26T06:45:39.595Z,11.9
2023-02-26T06:51:23.228Z,8.4
2023-02-26T06:56:39.191Z,10.7
2023-02-26T07:02:18.384Z,10.7
2023-02-26T07:08:05.881Z,11.9
2023-02-26T07:13:31.179Z,15.6
2023-02-26T07:19:04.192Z,18
2023-02-26T07:24:37.968Z,11.9
2023-02-26T07:30:17.817Z,10.7
2023-02-26T07:35:54.871Z,9.6
2023-02-26T07:41:12.362Z,13.2
2023-02-26T07:46:50.911Z,15.6
2023-02-26T07:52:33.111Z,15.6
2023-02-26T07:58:14.264Z,18
2023-02-26T08:03:48.503Z,20.4
2023-02-26T08:09:01.214Z,22.8
2023-02-26T08:14:57.127Z,21.5
2023-02-26T08:20:18.286Z,23.9
2023-02-26T08:25:49.127Z,26.4
2023-02-26T08:31:37.403Z,22.8
2023-02-26T08:36:55.422Z,25.1
2023-02-26T08:42:38.865Z,23.9
2023-02-26T08:47:57.741Z,22.8
2023-02-26T08:53:55.685Z,23.9
2023-02-26T08:59:10.306Z,22.8
2023-02-26T09:04:35.842Z,19.2
2023-02-26T09:10:20.121Z,20.4
2023-02-26T09:15:54.540Z,18
2023-02-26T09:21:37.545Z,18
2023-02-26T09:27:14.452Z,23.9
2023-02-26T09:32:41.649Z,23.9
2023-02-26T09:38:04.326Z,26.4
2023-02-26T09:44:03.533Z,29.9
2023-02-26T09:49:37.362Z,25.1
2023-02-26T09:55:09.410Z,27.6
2023-02-26T10:00:28.259Z,26.4
2023-02-26T10:06:03.311Z,27.6
2023-02-26T10:12:01.820Z,22.8
2023-02-26T10:17:35.750Z,22.8
2023-02-26T10:22:42.878Z,23.9
2023-02-26T10:28:29.230Z,26.4
2023-02-26T10:33:54.781Z,23.9
2023-02-26T10:39:34.993Z,25.1
2023-02-26T10:50:54.240Z,25.1
2023-02-26T10:56:20.257Z,26.4
2023-02-26T11:07:40.339Z,26.4
2023-02-26T11:13:02.896Z,26.4
2023-02-26T11:35:24.597Z,23.9
2023-02-26T11:46:40.882Z,22.8
2023-02-26T11:52:01.202Z,26.4
2023-02-26T11:57:59.263Z,25.1
2023-02-26T12:03:22.019Z,21.5
2023-02-26T12:08:57.336Z,23.9
2023-02-26T12:25:53.880Z,21.5
2023-02-26T12:31:09.353Z,23.9
2023-02-26T12:36:59.371Z,25.1
2023-02-26T12:42:16.598Z,23.9
2023-02-26T12:48:02.372Z,23.9
2023-02-26T12:53:46.958Z,22.8
2023-02-26T12:59:09.682Z,21.5
2023-02-26T13:04:50.100Z,26.4
2023-02-26T13:10:35.166Z,25.1
2023-02-26T13:15:52.131Z,25.1
2023-02-26T13:21:37.646Z,23.9
2023-02-26T13:26:55.530Z,23.9
2023-02-26T13:32:24.372Z,23.9
2023-02-26T13:38:24.477Z,23.9
2023-02-26T13:43:44.917Z,25.1
2023-02-26T13:49:29.764Z,25.1
2023-02-26T13:54:48.976Z,28.8
2023-02-26T14:00:32.827Z,25.1
2023-02-26T14:06:01.872Z,29.9
2023-02-26T14:11:30.719Z,25.1
2023-02-26T14:17:26.597Z,25.1
2023-02-26T14:23:03.660Z,29.9
2023-02-26T14:28:30.466Z,28.8
2023-02-26T14:33:59.337Z,27.6
2023-02-26T14:39:45.464Z,31.2
2023-02-26T14:45:15.216Z,29.9
2023-02-26T14:50:42.247Z,26.4
2023-02-26T14:56:25.837Z,36
2023-02-26T15:01:54.042Z,28.8
2023-02-26T15:07:30.098Z,23.9
2023-02-26T15:13:00.652Z,26.4
2023-02-26T15:18:22.258Z,23.9
2023-02-26T15:24:13.776Z,27.6
2023-02-26T15:29:55.995Z,31.2
2023-02-26T15:35:33.468Z,29.9
2023-02-26T15:40:52.711Z,27.6
2023-02-26T15:46:42.056Z,31.2
2023-02-26T15:51:57.457Z,27.6
2023-02-26T15:57:44.391Z,25.1
2023-02-26T16:03:12.824Z,27.6
2023-02-26T16:08:43.549Z,28.8
2023-02-26T16:14:07.950Z,27.6
2023-02-26T16:19:47.891Z,27.6
2023-02-26T16:25:25.168Z,23.9
2023-02-26T16:30:55.235Z,25.1
2023-02-26T16:42:16.203Z,27.6
2023-02-26T16:47:38.569Z,28.8
2023-02-26T16:53:11.001Z,27.6
2023-02-26T16:58:40.609Z,26.4
2023-02-26T17:04:18.999Z,22.8
2023-02-26T17:10:06.719Z,22.8
2023-02-26T17:15:24.783Z,26.4
2023-02-26T17:21:13.134Z,27.6
2023-02-26T17:26:29.703Z,28.8
2023-02-26T17:32:24.853Z,25.1
2023-02-26T17:37:38.522Z,22.8
2023-02-26T17:43:26.537Z,27.6
2023-02-26T17:48:52.840Z,27.6
2023-02-26T17:54:31.216Z,25.1
2023-02-26T17:59:52.576Z,29.9
2023-02-26T18:05:32.353Z,25.1
2023-02-26T18:11:01.708Z,25.1
2023-02-26T18:16:38.032Z,28.8
2023-02-26T18:22:28.641Z,29.9
2023-02-26T18:27:44.541Z,27.6
2023-02-26T18:33:12.089Z,27.6
2023-02-26T18:39:13.125Z,28.8
2023-02-26T18:44:32.927Z,32.3
2023-02-26T18:50:13.890Z,34.8
2023-02-26T18:55:32.959Z,28.8
2023-02-26T19:01:19.471Z,28.8
2023-02-26T19:06:46.684Z,27.6
2023-02-26T19:12:15.790Z,27.6
2023-02-26T19:18:10.986Z,34.8
2023-02-26T19:23:46.431Z,33.6
2023-02-26T19:29:04.887Z,26.4
2023-02-26T19:34:40.127Z,28.8
2023-02-26T19:40:05.633Z,23.9
2023-02-26T19:46:03.571Z,25.1
2023-02-26T19:51:36.946Z,23.9
2023-02-26T19:57:00.701Z,23.9
2023-02-26T20:02:30.796Z,27.6
2023-02-26T20:08:01.493Z,26.4
2023-02-26T20:13:47.134Z,31.2
2023-02-26T20:19:10.453Z,31.2
2023-02-26T20:24:50.415Z,25.1
2023-02-26T20:30:26.470Z,31.2
2023-02-26T20:35:45.445Z,31.2
2023-02-26T20:41:30.026Z,28.8
2023-02-26T20:46:55.648Z,29.9
2023-02-26T20:52:25.539Z,32.3
2023-02-26T20:58:16.945Z,31.2
2023-02-26T21:03:49.286Z,28.8
2023-02-26T21:09:18.647Z,28.8
2023-02-26T21:14:40.176Z,32.3
2023-02-26T21:20:16.145Z,27.6
2023-02-26T21:25:52.088Z,26.4
2023-02-26T21:31:40.067Z,31.2
2023-02-26T21:37:08.839Z,29.9
2023-02-26T21:42:29.532Z,29.9
2023-02-26T21:47:57.120Z,25.1
2023-02-26T21:53:38.772Z,23.9
2023-02-26T21:59:09.482Z,29.9
2023-02-26T22:04:45.991Z,29.9
2023-02-26T22:10:32.307Z,29.9
2023-02-26T22:16:12.581Z,32.3
2023-02-26T22:21:32.915Z,29.9
2023-02-26T22:27:04.878Z,29.9
2023-02-26T22:32:42.255Z,28.8
2023-02-26T22:38:05.922Z,26.4
2023-02-26T22:43:38.250Z,23.9
2023-02-26T22:49:24.055Z,25.1
2023-02-26T22:54:40.526Z,26.4
2023-02-26T23:00:27.945Z,29.9
2023-02-26T23:06:01.788Z,26.4
2023-02-26T23:11:49.952Z,23.9
2023-02-26T23:16:57.295Z,27.6
2023-02-26T23:22:41.298Z,32.3
2023-02-26T23:28:26.105Z,28.8
2023-02-26T23:34:00.259Z,28.8
2023-02-26T23:39:12.392Z,28.8
2023-02-26T23:45:11.497Z,29.9
2023-02-26T23:50:16.456Z,32.3
2023-02-26T23:56:15.486Z,27.6
